Crest, California
Current Conditions -  °F | °C
As of 12:15 AM on Saturday 25 Oct 2014 (Local Time) from KSEE Reporting Station
Few Clouds Few Clouds  
Wind Chill: 64°   Ceiling: Unl
Heat Index: 64°   Visibility: 10mi
Dew Point: 37°   Wind: 0mph
Humidity: 37%   Direction: NA
Pressure: 30.03"   Gusts: NA
Location:  32.8383°N, 116.868°W
Report Text: KSEE 250715Z AUTO 00000KT 10SM FEW095 18/03 A3003 RMK AO2
Loading
Personal Weather Stations






























Interactive Weather Map
Tropical Storm Tracking
New forecast layout! Learn more

10-Day Weather Forecast

Advertisements
Track Severe Weather on mobile